Terminal Aerodrome Forecast
Issued by NWS Wilmington, OH

Current Version | Previous Version | Graphics & Text | Print | Product List | Glossary On
Versions: 1 2 3 4 5 6 7 8 9 10 11 12 13 14 15 16 17 18 19 20 21 22 23 24 25 26 27 28 29 30
000
FTUS41 KILN 250200 AAA
TAFDAY
TAF AMD
KDAY 250251Z 2503/2524 17010KT P6SM SCT100 BKN200
     FM251000 19013KT P6SM VCSH BKN090
     FM251300 21018G26KT P6SM SCT050 BKN080
     FM251800 22022G28KT P6SM VCSH BKN050=

USA.gov is the U.S. government's official web portal to all federal, state and local government web resources and services.